Time;durP1;ratioP1;P1;durP2;ratioP2;P2;SDS_P1;SDS_P2;PMS_P1;PMS_P2;Temp;Humidity;BMP_temperature;BMP_pressure;BME280_temperature;BME280_humidity;BME280_pressure;Samples;Min_cycle;Max_cycle;Signal;HPM_P1;HPM_P2
2022/11/27 00:01:51;;;;;;;14.35;7.75;;;4.80;99.90;;;;;;5045565;28;20200;-76
2022/11/27 00:04:37;;;;;;;9.85;6.97;;;4.70;99.90;;;;;;5048017;28;20224;-74
2022/11/27 00:07:23;;;;;;;13.45;6.88;;;4.90;99.90;;;;;;5046431;28;20255;-76
2022/11/27 00:10:10;;;;;;;10.23;8.10;;;4.80;99.90;;;;;;5051125;28;22101;-75
2022/11/27 00:12:55;;;;;;;11.32;7.30;;;4.60;99.90;;;;;;5049770;28;20204;-76
2022/11/27 00:15:41;;;;;;;9.50;7.50;;;4.60;99.90;;;;;;5052214;28;20200;-75
2022/11/27 00:18:27;;;;;;;11.75;8.18;;;4.50;99.90;;;;;;5048561;28;20224;-75
2022/11/27 00:21:14;;;;;;;14.25;7.45;;;4.50;99.90;;;;;;5051825;28;20255;-75
2022/11/27 00:24:03;;;;;;;14.30;7.10;;;4.50;99.90;;;;;;5050459;28;20228;-76
2022/11/27 00:26:49;;;;;;;13.65;8.52;;;4.40;99.90;;;;;;5045987;28;20275;-75
2022/11/27 00:29:35;;;;;;;17.85;7.07;;;4.50;99.90;;;;;;5052707;28;20251;-75
2022/11/27 00:32:20;;;;;;;12.45;7.68;;;4.30;99.90;;;;;;5048892;28;20205;-76
2022/11/27 00:35:07;;;;;;;11.20;7.95;;;4.20;99.90;;;;;;5047562;28;20220;-75
2022/11/27 00:37:52;;;;;;;13.52;6.75;;;4.20;99.90;;;;;;5046878;28;20560;-75
2022/11/27 00:40:39;;;;;;;11.73;7.07;;;4.20;99.90;;;;;;5045348;28;20217;-75
2022/11/27 00:43:25;;;;;;;13.10;7.25;;;4.10;99.90;;;;;;5048897;28;20201;-75
2022/11/27 00:46:10;;;;;;;14.48;7.75;;;4.10;99.90;;;;;;5045726;28;20208;-75
2022/11/27 00:48:56;;;;;;;11.65;8.10;;;4.00;99.90;;;;;;5045423;28;20229;-75
2022/11/27 00:51:42;;;;;;;11.07;7.78;;;4.00;99.90;;;;;;5047052;28;20204;-75
2022/11/27 00:54:27;;;;;;;10.65;7.53;;;4.00;99.90;;;;;;5047924;28;20201;-76
2022/11/27 00:57:14;;;;;;;14.38;9.57;;;4.10;99.90;;;;;;5048797;28;20204;-76
2022/11/27 01:00:00;;;;;;;26.02;9.55;;;4.10;99.90;;;;;;5050678;28;20225;-76
2022/11/27 01:02:45;;;;;;;29.77;10.93;;;4.00;99.90;;;;;;5048233;28;20293;-75
2022/11/27 01:05:31;;;;;;;57.13;11.60;;;4.00;99.90;;;;;;5043796;28;20225;-76
2022/11/27 01:08:18;;;;;;;75.25;13.63;;;3.90;99.90;;;;;;5050145;28;20300;-75
2022/11/27 01:11:03;;;;;;;69.18;12.13;;;3.90;99.90;;;;;;5053758;28;20352;-76
2022/11/27 01:13:51;;;;;;;18.00;10.15;;;4.00;99.90;;;;;;5050947;28;20199;-76
2022/11/27 01:16:36;;;;;;;15.25;10.20;;;3.90;99.90;;;;;;5040282;28;20200;-74
2022/11/27 01:19:22;;;;;;;17.85;9.50;;;3.90;99.90;;;;;;5064436;28;20299;-74
2022/11/27 01:22:08;;;;;;;15.15;9.68;;;4.00;99.90;;;;;;5052927;28;20205;-75
2022/11/27 01:24:53;;;;;;;15.68;10.75;;;4.10;99.90;;;;;;5055887;28;20236;-76
2022/11/27 01:27:40;;;;;;;13.73;10.10;;;4.10;99.90;;;;;;5048895;28;20201;-76
2022/11/27 01:30:27;;;;;;;14.15;10.43;;;4.10;99.90;;;;;;5056843;28;20203;-76
2022/11/27 01:33:12;;;;;;;14.77;9.55;;;3.90;99.90;;;;;;5049370;28;20517;-75
2022/11/27 01:35:59;;;;;;;16.25;10.55;;;3.90;99.90;;;;;;5045624;28;20679;-75
2022/11/27 01:38:45;;;;;;;15.38;9.30;;;3.80;99.90;;;;;;5043507;28;20252;-76
2022/11/27 01:41:32;;;;;;;16.25;10.60;;;3.70;99.90;;;;;;5047326;28;20264;-76
2022/11/27 01:44:51;;;;;;;11.02;8.75;;;3.60;99.90;;;;;;5050509;28;20217;-73
2022/11/27 01:47:45;;;;;;;17.42;9.05;;;3.50;99.90;;;;;;5056148;28;20200;-76
2022/11/27 01:50:35;;;;;;;11.60;9.32;;;3.60;99.90;;;;;;5053948;28;20328;-76
2022/11/27 01:53:21;;;;;;;10.18;8.07;;;3.60;99.90;;;;;;5047196;28;20209;-76
2022/11/27 01:56:07;;;;;;;11.38;7.57;;;3.50;99.90;;;;;;5042778;28;20255;-76
2022/11/27 01:58:53;;;;;;;9.43;8.35;;;3.50;99.90;;;;;;5047519;28;20267;-76
2022/11/27 02:01:39;;;;;;;10.75;8.32;;;3.40;99.90;;;;;;5053685;28;20285;-76
2022/11/27 02:04:26;;;;;;;16.42;7.90;;;3.40;99.90;;;;;;5048758;28;20579;-75
2022/11/27 02:07:11;;;;;;;15.82;8.07;;;3.40;99.90;;;;;;5047199;28;20344;-76
2022/11/27 02:09:57;;;;;;;15.95;7.97;;;3.40;99.90;;;;;;5050450;28;20228;-75
2022/11/27 02:12:52;;;;;;;12.02;8.02;;;3.40;99.90;;;;;;5044584;28;20206;-76
2022/11/27 02:15:43;;;;;;;10.15;7.93;;;3.50;99.90;;;;;;5042440;28;20208;-75
2022/11/27 02:18:37;;;;;;;14.82;7.93;;;3.60;99.90;;;;;;5045291;28;20272;-75
2022/11/27 02:21:31;;;;;;;12.50;8.05;;;3.50;99.90;;;;;;5041975;28;20600;-74
2022/11/27 02:24:42;;;;;;;10.55;7.30;;;3.60;99.90;;;;;;5050298;28;20692;-76
2022/11/27 02:27:43;;;;;;;10.90;7.47;;;3.60;99.90;;;;;;5054660;28;20200;-76
2022/11/27 02:30:34;;;;;;;9.57;7.32;;;3.70;99.90;;;;;;5063549;28;20204;-76
2022/11/27 02:33:21;;;;;;;12.13;8.38;;;3.80;99.90;;;;;;5051093;28;20260;-76
2022/11/27 02:36:11;;;;;;;10.65;8.38;;;3.70;99.90;;;;;;5043936;28;20210;-76
2022/11/27 02:39:03;;;;;;;12.73;8.15;;;3.60;99.90;;;;;;5043304;28;20290;-76
2022/11/27 02:41:54;;;;;;;15.13;8.15;;;3.70;99.90;;;;;;5056041;28;20200;-76
2022/11/27 02:44:46;;;;;;;14.57;10.40;;;3.70;99.90;;;;;;5041119;28;20295;-76
2022/11/27 02:47:33;;;;;;;15.55;9.65;;;3.50;99.90;;;;;;5050038;28;20310;-74
2022/11/27 02:50:22;;;;;;;13.23;9.05;;;3.30;99.90;;;;;;5056437;28;20203;-76
2022/11/27 02:53:12;;;;;;;13.30;9.30;;;3.30;99.90;;;;;;5050600;28;20201;-75
2022/11/27 02:55:59;;;;;;;9.82;8.63;;;3.50;99.90;;;;;;5047171;28;20202;-76
2022/11/27 02:58:46;;;;;;;16.27;8.70;;;3.30;99.90;;;;;;5047237;28;20575;-75
2022/11/27 03:01:36;;;;;;;12.52;9.65;;;3.30;99.90;;;;;;5050772;28;20335;-76
2022/11/27 03:04:26;;;;;;;15.52;8.48;;;3.30;99.90;;;;;;5043205;28;20232;-75
2022/11/27 03:07:18;;;;;;;9.77;8.13;;;3.40;99.90;;;;;;5054183;28;20200;-76
2022/11/27 03:10:10;;;;;;;13.82;8.55;;;3.40;99.90;;;;;;5051916;28;20205;-75
2022/11/27 03:12:56;;;;;;;15.93;9.45;;;3.40;99.90;;;;;;5047221;28;20204;-73
2022/11/27 03:15:51;;;;;;;17.02;10.00;;;3.40;99.90;;;;;;5048463;28;20674;-75
2022/11/27 03:18:42;;;;;;;16.48;10.10;;;3.40;99.90;;;;;;5055790;28;20220;-75
2022/11/27 03:21:33;;;;;;;14.02;9.75;;;3.40;99.90;;;;;;5053065;28;20224;-78
2022/11/27 03:24:19;;;;;;;13.15;11.27;;;3.50;99.90;;;;;;5049581;28;20217;-74
2022/11/27 03:27:05;;;;;;;23.05;11.43;;;3.40;99.90;;;;;;5055380;28;20766;-76
2022/11/27 03:29:54;;;;;;;18.08;11.73;;;3.20;99.90;;;;;;5064499;28;20220;-75
2022/11/27 03:32:40;;;;;;;15.20;12.25;;;3.20;99.90;;;;;;5063140;28;20223;-76
2022/11/27 03:35:27;;;;;;;15.88;12.38;;;3.20;99.90;;;;;;5048000;28;20210;-78
2022/11/27 03:38:14;;;;;;;20.88;13.60;;;3.30;99.90;;;;;;5050160;28;20240;-77
2022/11/27 03:41:05;;;;;;;19.85;14.18;;;3.30;99.90;;;;;;5058052;28;20211;-77
2022/11/27 03:44:01;;;;;;;18.60;14.32;;;3.40;99.90;;;;;;5053260;28;20500;-75
2022/11/27 03:46:58;;;;;;;16.35;12.13;;;3.40;99.90;;;;;;5045597;28;20279;-77
2022/11/27 03:49:57;;;;;;;17.90;13.75;;;3.30;99.90;;;;;;5052421;28;20379;-77
2022/11/27 03:52:52;;;;;;;17.70;12.10;;;3.10;99.90;;;;;;5055981;28;20323;-76
2022/11/27 03:55:48;;;;;;;19.77;13.73;;;3.00;99.90;;;;;;5040426;28;20197;-77
2022/11/27 03:58:36;;;;;;;27.85;14.10;;;2.80;99.90;;;;;;5050485;28;20344;-77
2022/11/27 04:01:24;;;;;;;22.92;15.25;;;2.80;99.90;;;;;;5054810;28;20214;-77
2022/11/27 04:04:10;;;;;;;19.70;12.68;;;2.90;99.90;;;;;;5051054;28;20202;-76
2022/11/27 04:06:55;;;;;;;22.02;12.98;;;3.00;99.90;;;;;;5063128;28;20701;-77
2022/11/27 04:09:41;;;;;;;16.40;12.52;;;3.10;99.90;;;;;;5041688;28;20587;-74
2022/11/27 04:12:28;;;;;;;14.60;12.07;;;3.20;99.90;;;;;;5048509;28;20224;-76
2022/11/27 04:15:13;;;;;;;13.27;11.40;;;3.10;99.90;;;;;;5053923;28;20204;-77
2022/11/27 04:17:59;;;;;;;15.82;10.90;;;3.20;99.90;;;;;;5047959;28;20282;-75
2022/11/27 04:20:44;;;;;;;23.63;12.15;;;3.30;99.90;;;;;;5041495;28;20690;-75
2022/11/27 04:23:30;;;;;;;20.20;12.38;;;3.20;99.90;;;;;;5047045;28;20851;-74
2022/11/27 04:26:16;;;;;;;14.82;11.10;;;3.30;99.90;;;;;;5056704;28;20594;-77
2022/11/27 04:29:02;;;;;;;16.60;12.30;;;3.20;99.90;;;;;;5044672;28;20699;-77
2022/11/27 04:31:48;;;;;;;16.77;13.30;;;3.20;99.90;;;;;;5038484;28;20201;-75
2022/11/27 04:34:34;;;;;;;18.20;11.85;;;3.00;99.90;;;;;;5041419;28;20196;-77
2022/11/27 04:37:19;;;;;;;15.02;11.35;;;2.80;99.90;;;;;;5047534;28;20201;-76
2022/11/27 04:40:06;;;;;;;16.70;13.32;;;2.80;99.90;;;;;;5050596;28;20536;-76
2022/11/27 04:42:52;;;;;;;19.38;12.00;;;2.80;99.90;;;;;;5045027;28;20205;-77
2022/11/27 04:45:40;;;;;;;17.20;12.10;;;2.70;99.90;;;;;;5047719;28;20319;-76
2022/11/27 04:48:25;;;;;;;16.23;12.10;;;2.70;99.90;;;;;;5056615;28;20343;-76
2022/11/27 04:51:10;;;;;;;23.02;13.00;;;2.60;99.90;;;;;;5056073;28;20753;-77
2022/11/27 04:53:56;;;;;;;15.55;11.90;;;2.70;99.90;;;;;;5056932;28;20335;-77
2022/11/27 04:56:42;;;;;;;17.98;12.18;;;2.60;99.90;;;;;;5054058;28;20196;-75
2022/11/27 04:59:27;;;;;;;17.20;12.10;;;2.70;99.90;;;;;;5054233;28;20305;-76
2022/11/27 05:02:15;;;;;;;15.38;11.90;;;2.60;99.90;;;;;;5049151;28;20244;-76
2022/11/27 05:05:00;;;;;;;12.95;10.85;;;2.60;99.90;;;;;;5038666;28;20236;-77
2022/11/27 05:07:46;;;;;;;15.63;10.52;;;2.70;99.90;;;;;;5044698;28;20218;-75
2022/11/27 05:10:31;;;;;;;15.10;10.55;;;2.80;99.90;;;;;;5052914;28;20296;-74
2022/11/27 05:13:17;;;;;;;12.25;9.18;;;2.90;99.90;;;;;;5058322;28;20216;-75
2022/11/27 05:16:02;;;;;;;13.00;10.05;;;3.00;99.90;;;;;;5048933;28;20219;-76
2022/11/27 05:18:49;;;;;;;16.25;10.55;;;3.00;99.90;;;;;;5052171;28;20220;-75
2022/11/27 05:21:35;;;;;;;16.95;9.77;;;3.00;99.90;;;;;;5050513;28;20212;-76
2022/11/27 05:24:23;;;;;;;13.15;10.02;;;3.00;99.90;;;;;;5051533;28;20196;-77
2022/11/27 05:27:09;;;;;;;12.20;9.32;;;2.80;99.90;;;;;;5050715;28;20314;-76
2022/11/27 05:29:54;;;;;;;15.05;10.18;;;2.80;99.90;;;;;;5051994;28;20290;-77
2022/11/27 05:32:39;;;;;;;11.80;9.77;;;2.60;99.90;;;;;;5047780;28;20209;-77
2022/11/27 05:35:26;;;;;;;13.00;9.50;;;2.60;99.90;;;;;;5055655;28;20216;-77
2022/11/27 05:38:12;;;;;;;14.77;9.90;;;2.70;99.90;;;;;;5055811;28;20232;-77
2022/11/27 05:40:57;;;;;;;14.68;9.93;;;2.70;99.90;;;;;;5050167;28;20327;-76
2022/11/27 05:43:43;;;;;;;16.48;11.40;;;2.70;99.90;;;;;;5048251;28;20217;-77
2022/11/27 05:46:29;;;;;;;18.40;11.40;;;2.70;99.90;;;;;;5054929;28;20224;-77
2022/11/27 05:49:15;;;;;;;17.65;11.73;;;2.80;99.90;;;;;;5046253;28;20228;-76
2022/11/27 05:52:02;;;;;;;18.88;10.57;;;2.70;99.90;;;;;;5053499;28;20299;-77
2022/11/27 05:54:48;;;;;;;18.88;11.68;;;2.60;99.90;;;;;;5049512;28;20195;-76
2022/11/27 05:57:33;;;;;;;19.45;10.98;;;2.70;99.90;;;;;;5043940;28;20209;-76
2022/11/27 06:00:19;;;;;;;14.23;10.57;;;2.70;99.90;;;;;;5048658;28;20222;-77
2022/11/27 06:03:05;;;;;;;13.63;10.15;;;2.80;99.90;;;;;;5047244;28;20209;-76
2022/11/27 06:05:51;;;;;;;15.80;11.38;;;2.80;99.90;;;;;;5052506;28;20228;-75
2022/11/27 06:08:38;;;;;;;18.20;11.15;;;2.70;99.90;;;;;;5054884;28;20232;-77
2022/11/27 06:11:24;;;;;;;12.95;9.18;;;2.70;99.90;;;;;;5048209;28;20208;-77
2022/11/27 06:14:10;;;;;;;17.65;11.10;;;2.70;99.90;;;;;;5045800;28;20209;-77
2022/11/27 06:16:56;;;;;;;17.25;11.07;;;2.50;99.90;;;;;;5053019;28;22622;-77
2022/11/27 06:19:42;;;;;;;17.08;11.80;;;2.50;99.90;;;;;;5043811;28;20224;-77
2022/11/27 06:22:27;;;;;;;20.80;12.80;;;2.40;99.90;;;;;;5047234;28;20284;-76
2022/11/27 06:25:14;;;;;;;31.38;13.50;;;2.40;99.90;;;;;;5049428;28;20725;-77
2022/11/27 06:28:00;;;;;;;17.20;12.63;;;2.30;99.90;;;;;;5048977;28;20225;-76
2022/11/27 06:30:46;;;;;;;46.95;11.48;;;2.20;99.90;;;;;;5051361;28;20263;-76
2022/11/27 06:33:32;;;;;;;17.15;12.57;;;2.30;99.90;;;;;;5046792;28;20200;-77
2022/11/27 06:36:18;;;;;;;13.25;10.52;;;2.20;99.90;;;;;;5049046;28;20703;-76
2022/11/27 06:39:05;;;;;;;13.68;10.30;;;2.10;99.90;;;;;;5053715;28;20303;-77
2022/11/27 06:41:52;;;;;;;14.88;10.27;;;2.30;99.90;;;;;;5057109;28;20679;-76
2022/11/27 06:44:38;;;;;;;12.07;9.35;;;2.30;99.90;;;;;;5051686;28;20578;-77
2022/11/27 06:47:24;;;;;;;13.85;9.80;;;2.30;99.90;;;;;;5045837;28;20270;-76
2022/11/27 06:50:10;;;;;;;18.25;9.65;;;2.20;99.90;;;;;;5050783;28;20254;-77
2022/11/27 06:52:55;;;;;;;11.02;8.73;;;2.20;99.90;;;;;;5041097;28;20205;-76
2022/11/27 06:55:41;;;;;;;16.02;11.82;;;2.20;99.90;;;;;;5051597;28;20205;-76
2022/11/27 06:58:28;;;;;;;12.90;9.65;;;2.20;99.90;;;;;;5049463;28;20586;-76
2022/11/27 07:01:16;;;;;;;14.20;9.45;;;2.30;99.90;;;;;;5052006;28;20225;-77
2022/11/27 07:04:01;;;;;;;12.55;9.75;;;2.40;99.90;;;;;;5049408;28;20640;-77
2022/11/27 07:06:47;;;;;;;13.70;10.80;;;2.50;99.90;;;;;;5043753;28;20585;-77
2022/11/27 07:09:32;;;;;;;13.25;9.68;;;2.50;99.90;;;;;;5049876;28;20570;-75
2022/11/27 07:12:18;;;;;;;14.00;8.45;;;2.40;99.90;;;;;;5048385;28;20562;-76
2022/11/27 07:15:06;;;;;;;11.40;9.10;;;2.40;99.90;;;;;;5051660;28;20204;-75
2022/11/27 07:17:52;;;;;;;28.98;16.85;;;2.50;99.90;;;;;;5062242;28;20301;-77
2022/11/27 07:20:37;;;;;;;18.45;13.65;;;2.50;99.90;;;;;;5043605;28;20686;-77
2022/11/27 07:23:23;;;;;;;29.05;16.73;;;2.60;99.90;;;;;;5048203;28;20199;-77
2022/11/27 07:26:10;;;;;;;20.77;15.68;;;2.40;99.90;;;;;;5058065;28;20604;-76
2022/11/27 07:28:56;;;;;;;16.65;11.82;;;2.30;99.90;;;;;;5052924;28;20717;-77
2022/11/27 07:31:43;;;;;;;17.92;12.70;;;2.40;99.90;;;;;;5047753;28;20339;-77
2022/11/27 07:34:28;;;;;;;12.48;8.95;;;2.50;99.90;;;;;;5045982;28;20573;-74
2022/11/27 07:37:14;;;;;;;14.73;9.55;;;2.60;99.90;;;;;;5047517;28;20201;-76
2022/11/27 07:39:59;;;;;;;18.23;9.30;;;2.60;99.90;;;;;;5053755;28;20240;-77
2022/11/27 07:42:45;;;;;;;10.55;8.38;;;2.70;99.90;;;;;;5040418;28;20206;-76
2022/11/27 07:45:30;;;;;;;12.18;8.85;;;2.80;99.90;;;;;;5051162;28;20624;-76
2022/11/27 07:48:17;;;;;;;13.90;10.80;;;2.80;99.90;;;;;;5053520;28;20225;-76
2022/11/27 07:51:05;;;;;;;22.10;13.23;;;2.70;99.90;;;;;;5044928;28;20209;-75
2022/11/27 07:53:51;;;;;;;21.08;16.98;;;2.80;99.90;;;;;;5048267;28;20633;-75
2022/11/27 07:56:36;;;;;;;19.77;14.32;;;2.80;99.90;;;;;;5050123;28;20203;-76
2022/11/27 07:59:22;;;;;;;13.85;10.85;;;2.90;99.90;;;;;;5048165;28;20224;-76
2022/11/27 08:02:09;;;;;;;16.88;12.35;;;3.00;99.90;;;;;;5046532;28;20572;-75
2022/11/27 08:04:56;;;;;;;14.20;11.07;;;3.10;99.90;;;;;;5057262;28;20204;-76
2022/11/27 08:07:42;;;;;;;17.60;12.30;;;3.20;99.90;;;;;;5056290;28;20396;-76
2022/11/27 08:10:27;;;;;;;19.05;13.20;;;3.20;99.90;;;;;;5047969;28;20207;-76
2022/11/27 08:13:12;;;;;;;16.33;12.98;;;3.30;99.90;;;;;;5045523;28;20201;-76
2022/11/27 08:15:59;;;;;;;15.70;11.35;;;3.30;99.90;;;;;;5044848;28;20562;-75
2022/11/27 08:18:44;;;;;;;19.23;13.70;;;3.30;99.90;;;;;;5044969;28;20216;-76
2022/11/27 08:21:33;;;;;;;15.85;12.32;;;3.40;99.90;;;;;;5045844;28;20201;-75
2022/11/27 08:24:18;;;;;;;17.02;12.43;;;3.50;99.90;;;;;;5050174;28;20224;-75
2022/11/27 08:27:04;;;;;;;21.75;12.93;;;3.60;99.90;;;;;;5046558;28;20237;-76
2022/11/27 08:29:50;;;;;;;19.90;13.00;;;3.60;99.90;;;;;;5046782;28;20221;-77
2022/11/27 08:32:38;;;;;;;19.17;12.82;;;3.80;99.90;;;;;;5035469;28;20197;-77
2022/11/27 08:35:23;;;;;;;26.05;17.67;;;3.80;99.90;;;;;;5048468;28;20371;-77
2022/11/27 08:38:10;;;;;;;26.98;19.15;;;3.60;99.90;;;;;;5054638;28;20286;-76
2022/11/27 08:40:57;;;;;;;21.20;15.38;;;3.70;99.90;;;;;;5047289;28;20335;-77
2022/11/27 08:43:42;;;;;;;18.52;13.93;;;3.80;99.90;;;;;;5054163;28;20200;-77
2022/11/27 08:46:28;;;;;;;28.73;19.20;;;3.80;99.90;;;;;;5047313;28;20697;-77
2022/11/27 08:49:13;;;;;;;24.85;16.67;;;3.80;99.90;;;;;;5052174;28;20229;-76
2022/11/27 08:51:59;;;;;;;22.38;15.30;;;3.90;99.90;;;;;;5054754;28;20209;-77
2022/11/27 08:54:46;;;;;;;20.52;14.82;;;3.90;99.90;;;;;;5047528;28;20224;-77
2022/11/27 08:57:32;;;;;;;23.85;15.13;;;4.00;99.90;;;;;;5052613;28;20786;-76
2022/11/27 09:00:19;;;;;;;18.83;14.68;;;4.10;99.90;;;;;;5052219;28;20209;-76
2022/11/27 09:03:04;;;;;;;34.08;21.25;;;4.10;99.90;;;;;;5043613;28;20274;-76
2022/11/27 09:05:50;;;;;;;26.05;19.55;;;4.10;99.90;;;;;;5061838;28;20235;-77
2022/11/27 09:08:36;;;;;;;27.15;18.42;;;4.10;99.90;;;;;;5057972;28;20217;-74
2022/11/27 09:11:22;;;;;;;21.15;16.30;;;4.20;99.90;;;;;;5048114;28;20575;-77
2022/11/27 09:14:08;;;;;;;18.85;14.68;;;4.20;99.90;;;;;;5051365;28;20679;-76
2022/11/27 09:16:54;;;;;;;24.92;14.45;;;4.30;99.90;;;;;;5050950;28;20204;-75
2022/11/27 09:19:39;;;;;;;20.35;13.80;;;4.40;99.90;;;;;;5053646;28;20699;-77
2022/11/27 09:22:25;;;;;;;17.95;13.27;;;4.50;99.90;;;;;;5041665;28;20205;-76
2022/11/27 09:25:11;;;;;;;17.58;13.40;;;4.50;99.90;;;;;;5054287;28;20290;-77
2022/11/27 09:27:58;;;;;;;27.42;13.75;;;4.60;99.90;;;;;;5048051;28;20280;-76
2022/11/27 09:30:43;;;;;;;16.65;12.63;;;4.70;99.90;;;;;;5048335;28;20576;-77
2022/11/27 09:33:31;;;;;;;14.77;11.65;;;4.80;99.90;;;;;;5046809;28;20227;-77
2022/11/27 09:36:19;;;;;;;16.20;12.63;;;5.00;99.90;;;;;;5050395;28;20220;-77
2022/11/27 09:39:05;;;;;;;16.27;9.77;;;5.20;99.90;;;;;;5056597;28;20276;-76
2022/11/27 09:41:52;;;;;;;12.82;8.85;;;5.40;99.90;;;;;;5044152;28;20204;-77
2022/11/27 09:44:44;;;;;;;20.05;9.02;;;5.50;99.90;;;;;;5040996;28;20201;-77
2022/11/27 09:47:39;;;;;;;20.63;9.93;;;5.60;99.90;;;;;;5046043;28;20422;-77
2022/11/27 09:50:29;;;;;;;18.38;8.82;;;5.80;99.90;;;;;;5049610;28;20287;-75
2022/11/27 09:53:23;;;;;;;10.32;8.23;;;5.90;99.90;;;;;;5051539;28;20208;-75
2022/11/27 09:56:13;;;;;;;16.95;8.70;;;6.00;99.90;;;;;;5056981;28;20221;-77
2022/11/27 09:58:59;;;;;;;16.90;9.00;;;6.10;99.90;;;;;;5045121;28;20275;-77
2022/11/27 10:01:46;;;;;;;14.93;8.70;;;6.30;99.90;;;;;;5047982;28;20328;-76
2022/11/27 10:04:33;;;;;;;15.68;9.15;;;6.50;99.90;;;;;;5052915;28;20220;-77
2022/11/27 10:07:32;;;;;;;11.75;8.98;;;6.70;99.90;;;;;;5063354;28;20327;-76
2022/11/27 10:10:30;;;;;;;16.98;10.32;;;6.90;99.90;;;;;;5047821;28;20804;-75
2022/11/27 10:13:32;;;;;;;17.60;10.35;;;7.00;99.90;;;;;;5056922;28;20208;-76
2022/11/27 10:16:26;;;;;;;17.05;9.77;;;7.20;99.90;;;;;;5054457;28;20239;-77
2022/11/27 10:19:27;;;;;;;15.80;9.97;;;7.40;99.90;;;;;;5057310;28;20232;-77
2022/11/27 10:22:19;;;;;;;14.27;9.30;;;7.60;99.90;;;;;;5050474;28;20493;-77
2022/11/27 10:25:15;;;;;;;10.25;8.30;;;7.70;99.90;;;;;;5057198;28;20460;-75
2022/11/27 10:28:15;;;;;;;13.63;8.77;;;7.80;99.90;;;;;;5043812;28;20244;-77
2022/11/27 10:31:04;;;;;;;11.27;8.10;;;8.00;99.90;;;;;;5054133;28;20337;-76
2022/11/27 10:33:53;;;;;;;16.40;8.95;;;8.10;99.90;;;;;;5041293;28;20208;-77
2022/11/27 10:36:44;;;;;;;10.47;7.67;;;8.30;99.90;;;;;;5051970;28;20682;-77
2022/11/27 10:39:35;;;;;;;21.13;7.37;;;8.60;99.90;;;;;;5045215;28;20462;-77
2022/11/27 10:42:24;;;;;;;10.70;7.00;;;8.80;99.90;;;;;;5048899;28;20556;-76
2022/11/27 10:45:20;;;;;;;8.57;5.90;;;8.90;99.90;;;;;;5048036;28;20498;-77
2022/11/27 10:48:06;;;;;;;5.90;5.03;;;9.00;99.90;;;;;;5060857;28;20479;-76
2022/11/27 10:50:52;;;;;;;10.07;4.83;;;9.10;99.90;;;;;;5047591;28;20530;-77
2022/11/27 10:53:42;;;;;;;10.33;4.70;;;9.10;99.90;;;;;;5050489;28;20447;-77
2022/11/27 10:56:43;;;;;;;10.83;5.20;;;9.20;99.90;;;;;;5054868;28;20447;-77
2022/11/27 10:59:35;;;;;;;7.00;4.53;;;9.20;99.90;;;;;;5052637;28;20829;-77
2022/11/27 11:02:29;;;;;;;6.80;4.17;;;9.10;99.90;;;;;;5057437;28;20448;-77
2022/11/27 11:05:23;;;;;;;6.90;3.80;;;9.20;99.90;;;;;;5050221;28;20774;-76
2022/11/27 11:08:17;;;;;;;10.23;3.77;;;9.20;99.90;;;;;;5053803;28;20841;-76
2022/11/27 11:11:06;;;;;;;7.70;4.10;;;9.30;99.90;;;;;;5045457;28;20459;-77
2022/11/27 11:13:52;;;;;;;11.87;3.50;;;9.30;99.90;;;;;;5054108;28;20545;-77
2022/11/27 11:16:43;;;;;;;6.57;3.67;;;9.20;99.90;;;;;;5043425;28;21063;-77
2022/11/27 11:19:31;;;;;;;5.90;3.40;;;9.10;99.90;;;;;;5049854;28;20835;-77
2022/11/27 11:22:17;;;;;;;7.50;3.67;;;9.10;99.90;;;;;;5055255;28;20441;-77
2022/11/27 11:25:04;;;;;;;5.73;3.10;;;9.00;99.90;;;;;;5054613;28;20514;-76
2022/11/27 11:27:52;;;;;;;4.70;2.90;;;9.00;99.90;;;;;;5060175;28;20837;-77
2022/11/27 11:30:38;;;;;;;5.83;3.00;;;9.00;99.90;;;;;;5054274;28;20446;-77
2022/11/27 11:33:25;;;;;;;5.67;3.27;;;9.00;99.90;;;;;;5052198;28;20658;-77
2022/11/27 11:36:12;;;;;;;4.70;3.07;;;9.10;99.90;;;;;;5053401;28;20481;-76
2022/11/27 11:38:57;;;;;;;4.70;2.80;;;9.10;99.90;;;;;;5052360;28;21038;-75
2022/11/27 11:41:46;;;;;;;5.40;2.80;;;9.20;99.90;;;;;;5059069;28;20779;-77
2022/11/27 11:44:37;;;;;;;6.00;2.67;;;9.20;99.90;;;;;;5060669;28;20439;-77
2022/11/27 11:47:25;;;;;;;7.88;3.22;;;9.30;99.90;;;;;;5058739;28;20589;-77
2022/11/27 11:50:13;;;;;;;5.83;2.33;;;9.40;99.90;;;;;;5042058;28;20220;-76
2022/11/27 11:53:02;;;;;;;6.23;2.77;;;9.50;99.90;;;;;;5055434;28;20961;-77
2022/11/27 11:56:01;;;;;;;5.57;2.53;;;9.60;99.90;;;;;;5042814;28;20818;-75
2022/11/27 11:58:56;;;;;;;4.10;2.17;;;9.70;99.90;;;;;;5054111;28;20467;-75
2022/11/27 12:02:14;;;;;;;4.00;2.20;;;9.90;99.90;;;;;;5051269;28;20431;-75
2022/11/27 12:05:20;;;;;;;2.23;1.60;;;10.00;99.90;;;;;;5043017;28;20471;-74
2022/11/27 12:08:24;;;;;;;5.20;1.73;;;10.10;99.90;;;;;;5055738;28;20478;-75
2022/11/27 12:11:15;;;;;;;4.10;2.00;;;10.20;99.90;;;;;;5054335;28;20525;-76
2022/11/27 12:14:13;;;;;;;4.77;2.50;;;10.40;99.90;;;;;;5040670;28;20476;-75
2022/11/27 12:17:14;;;;;;;5.80;2.00;;;10.50;99.90;;;;;;5045148;28;20501;-76
2022/11/27 12:20:14;;;;;;;5.33;1.93;;;10.80;99.90;;;;;;5044423;28;20834;-75
2022/11/27 12:23:28;;;;;;;3.60;1.70;;;11.10;99.90;;;;;;5040519;28;20443;-76
2022/11/27 12:26:22;;;;;;;11.57;3.47;;;11.30;99.90;;;;;;5055739;28;20425;-76
2022/11/27 12:29:34;;;;;;;6.70;2.50;;;11.60;99.90;;;;;;5047635;28;21015;-77
2022/11/27 12:32:43;;;;;;;3.23;2.10;;;11.90;99.90;;;;;;5045603;28;20491;-75
2022/11/27 12:35:32;;;;;;;4.00;1.53;;;12.30;99.90;;;;;;5045244;28;20876;-76
2022/11/27 12:38:37;;;;;;;8.60;2.20;;;12.40;80.40;;;;;;5049230;28;21289;-77
2022/11/27 12:41:44;;;;;;;8.40;2.10;;;12.50;68.50;;;;;;5045270;28;20484;-76
2022/11/27 12:44:43;;;;;;;4.17;2.03;;;12.80;75.00;;;;;;5041461;28;20442;-76
2022/11/27 12:47:38;;;;;;;4.73;2.47;;;13.20;72.60;;;;;;5047110;28;20470;-77
2022/11/27 12:50:32;;;;;;;4.10;2.00;;;12.90;69.30;;;;;;5049927;28;20533;-77
2022/11/27 12:53:23;;;;;;;3.30;1.63;;;12.80;65.70;;;;;;5052860;28;20888;-74
2022/11/27 12:56:15;;;;;;;3.43;2.10;;;12.90;74.10;;;;;;5049108;28;20452;-76
2022/11/27 12:59:09;;;;;;;3.33;2.20;;;12.80;78.00;;;;;;5044810;28;20830;-77
2022/11/27 13:02:02;;;;;;;4.47;2.13;;;12.70;84.90;;;;;;5044413;28;20459;-74
2022/11/27 13:04:54;;;;;;;4.70;2.20;;;12.60;80.30;;;;;;5044242;28;21138;-76
2022/11/27 13:07:46;;;;;;;5.03;2.37;;;12.90;68.80;;;;;;5043432;28;20434;-76
2022/11/27 13:10:37;;;;;;;9.40;4.60;;;12.70;68.70;;;;;;5049272;28;20451;-76
2022/11/27 13:13:29;;;;;;;16.17;7.90;;;12.40;70.70;;;;;;5049087;28;20443;-76
2022/11/27 13:16:21;;;;;;;7.07;3.90;;;12.30;76.70;;;;;;5045615;28;20955;-77
2022/11/27 13:19:14;;;;;;;6.43;3.30;;;13.30;77.70;;;;;;5045427;28;20445;-76
2022/11/27 13:22:05;;;;;;;8.87;3.83;;;14.20;58.50;;;;;;5052114;28;20498;-76
2022/11/27 13:24:51;;;;;;;4.23;2.63;;;15.00;50.50;;;;;;5052521;28;20465;-77
2022/11/27 13:27:37;;;;;;;2.83;1.70;;;14.70;43.20;;;;;;5056748;28;20989;-76
2022/11/27 13:30:27;;;;;;;4.43;2.53;;;13.80;46.80;;;;;;5048166;28;20442;-77
2022/11/27 13:33:25;;;;;;;4.60;2.27;;;13.30;49.60;;;;;;5041608;28;20469;-75
2022/11/27 13:36:20;;;;;;;3.83;2.10;;;12.70;57.90;;;;;;5044483;28;20486;-76
2022/11/27 13:39:20;;;;;;;4.00;2.40;;;12.10;59.50;;;;;;5046913;28;20813;-75
2022/11/27 13:42:09;;;;;;;3.90;2.30;;;11.70;70.80;;;;;;5051916;28;20435;-75
2022/11/27 13:44:57;;;;;;;3.00;2.30;;;11.30;67.50;;;;;;5047512;28;20501;-75
2022/11/27 13:47:44;;;;;;;3.53;2.30;;;11.10;76.70;;;;;;5044920;28;21020;-75
2022/11/27 13:50:30;;;;;;;4.10;2.33;;;11.00;84.60;;;;;;5043316;28;21002;-75
2022/11/27 13:53:16;;;;;;;49.17;26.47;;;10.80;85.40;;;;;;5042546;28;21032;-75
2022/11/27 13:56:04;;;;;;;19.20;11.53;;;10.60;97.50;;;;;;5042202;28;20813;-73
2022/11/27 13:58:50;;;;;;;32.30;15.03;;;10.40;99.90;;;;;;5051619;28;21019;-73
2022/11/27 14:01:35;;;;;;;17.10;9.73;;;10.20;99.90;;;;;;5062658;28;20447;-73
2022/11/27 14:04:21;;;;;;;17.07;9.40;;;10.00;99.90;;;;;;5046087;28;20499;-73
2022/11/27 14:07:10;;;;;;;20.30;12.80;;;9.80;99.90;;;;;;5044239;28;20641;-74
2022/11/27 14:10:08;;;;;;;20.10;10.63;;;9.60;99.90;;;;;;5045944;28;20549;-75
2022/11/27 14:12:59;;;;;;;26.83;13.70;;;9.50;99.90;;;;;;5047225;28;20456;-74
2022/11/27 14:16:00;;;;;;;15.73;9.20;;;9.40;99.90;;;;;;5041748;28;20960;-74
2022/11/27 14:18:50;;;;;;;13.50;8.83;;;9.30;99.90;;;;;;5046427;28;20468;-75
2022/11/27 14:21:41;;;;;;;15.83;9.70;;;9.20;99.90;;;;;;5048648;28;20819;-75
2022/11/27 14:24:35;;;;;;;16.90;8.53;;;9.10;99.90;;;;;;5057481;28;21033;-74
2022/11/27 14:27:24;;;;;;;22.98;13.10;;;9.00;99.90;;;;;;5051197;28;20458;-75
2022/11/27 14:30:23;;;;;;;10.40;7.00;;;8.90;99.90;;;;;;5043560;28;20799;-74
2022/11/27 14:33:18;;;;;;;50.57;27.73;;;8.80;99.90;;;;;;5043274;28;20241;-75
2022/11/27 14:36:06;;;;;;;19.33;11.30;;;8.90;99.90;;;;;;5051084;28;20505;-74